Time,TemperatureF,DewpointF,PressureIn,WindDirection,WindDirectionDegrees,WindSpeedMPH,WindSpeedGustMPH,Humidity,HourlyPrecipIn,Conditions,Clouds,dailyrainin,SoftwareType,DateUTC
2013-06-06 00:00:00,55.9,51.8,29.97,ESE,112,0.0,0.0,85,0.00,,,0.00,WeatherTracker,2013-06-06 07:00:00,
2013-06-06 00:10:00,55.8,51.8,29.97,ESE,112,0.0,0.0,84,0.00,,,0.00,WeatherTracker,2013-06-06 07:10:00,
2013-06-06 00:15:00,55.8,51.8,29.97,ESE,112,0.0,0.0,85,0.00,,,0.00,WeatherTracker,2013-06-06 07:15:00,
2013-06-06 00:25:00,55.6,51.8,29.97,ESE,112,0.0,0.0,87,0.00,,,0.00,WeatherTracker,2013-06-06 07:25:00,
2013-06-06 00:30:00,55.4,51.8,29.97,SE,135,1.0,1.0,88,0.00,,,0.00,WeatherTracker,2013-06-06 07:30:00,
2013-06-06 00:40:00,55.4,51.8,29.97,SE,135,0.0,0.0,88,0.00,,,0.00,WeatherTracker,2013-06-06 07:40:00,
2013-06-06 00:45:00,55.2,53.6,29.97,SE,135,0.0,0.0,89,0.00,,,0.00,WeatherTracker,2013-06-06 07:45:00,
2013-06-06 00:50:00,54.9,51.8,29.97,SE,135,0.0,0.0,89,0.00,,,0.00,WeatherTracker,2013-06-06 07:50:00,
2013-06-06 00:55:00,54.9,51.8,29.97,SE,135,0.0,0.0,89,0.00,,,0.00,WeatherTracker,2013-06-06 07:55:00,
2013-06-06 01:00:00,54.7,51.8,29.97,SE,135,0.0,0.0,90,0.00,,,0.00,WeatherTracker,2013-06-06 08:00:00,
2013-06-06 01:05:00,54.3,51.8,29.97,SE,135,0.0,0.0,89,0.00,,,0.00,WeatherTracker,2013-06-06 08:05:00,
2013-06-06 01:10:00,54.3,51.8,29.97,East,90,0.0,0.0,89,0.00,,,0.00,WeatherTracker,2013-06-06 08:10:00,
2013-06-06 01:15:00,54.3,51.8,29.97,SE,135,0.0,0.0,89,0.00,,,0.00,WeatherTracker,2013-06-06 08:15:00,
2013-06-06 01:20:00,54.3,51.8,29.97,SE,135,1.0,1.0,90,0.00,,,0.00,WeatherTracker,2013-06-06 08:20:00,
2013-06-06 01:25:00,54.1,51.8,29.97,SE,135,0.0,0.0,90,0.00,,,0.00,WeatherTracker,2013-06-06 08:25:00,
2013-06-06 01:30:00,54.0,51.8,29.97,SE,135,0.0,0.0,90,0.00,,,0.00,WeatherTracker,2013-06-06 08:30:00,
2013-06-06 01:35:00,53.8,51.8,29.94,SE,135,0.0,0.0,90,0.00,,,0.00,WeatherTracker,2013-06-06 08:35:00,
2013-06-06 01:40:00,53.8,51.8,29.94,SE,135,0.0,0.0,90,0.00,,,0.00,WeatherTracker,2013-06-06 08:40:00,
2013-06-06 01:50:00,53.6,51.8,29.94,SSE,157,0.0,1.0,91,0.00,,,0.00,WeatherTracker,2013-06-06 08:50:00,
2013-06-06 01:55:00,53.4,51.8,29.94,SE,135,1.0,1.0,92,0.00,,,0.00,WeatherTracker,2013-06-06 08:55:00,
2013-06-06 02:00:00,53.6,51.8,29.94,SE,135,0.0,0.0,92,0.00,,,0.00,WeatherTracker,2013-06-06 09:00:00,
2013-06-06 02:05:00,53.4,51.8,29.94,SE,135,0.0,0.0,92,0.00,,,0.00,WeatherTracker,2013-06-06 09:05:00,
2013-06-06 02:10:00,53.2,50.0,29.94,ESE,112,0.0,0.0,92,0.00,,,0.00,WeatherTracker,2013-06-06 09:10:00,
2013-06-06 02:15:00,53.1,50.0,29.94,East,90,0.0,0.0,92,0.00,,,0.00,WeatherTracker,2013-06-06 09:15:00,
2013-06-06 02:25:00,52.7,50.0,29.94,SSE,157,0.0,0.0,92,0.00,,,0.00,WeatherTracker,2013-06-06 09:25:00,
2013-06-06 02:30:00,52.7,50.0,29.94,SE,135,0.0,0.0,92,0.00,,,0.00,WeatherTracker,2013-06-06 09:30:00,
2013-06-06 02:35:00,52.7,50.0,29.94,ESE,112,0.0,0.0,92,0.00,,,0.00,WeatherTracker,2013-06-06 09:35:00,
2013-06-06 02:40:00,52.5,50.0,29.94,SE,135,1.0,0.0,92,0.00,,,0.00,WeatherTracker,2013-06-06 09:40:00,
2013-06-06 02:45:00,52.3,50.0,29.94,East,90,0.0,0.0,92,0.00,,,0.00,WeatherTracker,2013-06-06 09:45:00,
2013-06-06 02:50:00,52.3,50.0,29.94,SSE,157,0.0,0.0,92,0.00,,,0.00,WeatherTracker,2013-06-06 09:50:00,
2013-06-06 03:00:00,52.0,50.0,29.94,SE,135,0.0,0.0,92,0.00,,,0.00,WeatherTracker,2013-06-06 10:00:00,
2013-06-06 03:05:00,51.8,50.0,29.94,SE,135,0.0,0.0,92,0.00,,,0.00,WeatherTracker,2013-06-06 10:05:00,
2013-06-06 03:10:00,51.8,50.0,29.94,SE,135,0.0,0.0,92,0.00,,,0.00,WeatherTracker,2013-06-06 10:10:00,
2013-06-06 03:15:00,51.8,50.0,29.94,ESE,112,0.0,0.0,92,0.00,,,0.00,WeatherTracker,2013-06-06 10:15:00,
2013-06-06 03:20:00,51.8,50.0,29.94,ESE,112,0.0,0.0,92,0.00,,,0.00,WeatherTracker,2013-06-06 10:20:00,
2013-06-06 03:25:00,51.8,50.0,29.94,ESE,112,0.0,0.0,92,0.00,,,0.00,WeatherTracker,2013-06-06 10:25:00,
2013-06-06 03:35:00,51.8,50.0,29.94,East,90,0.0,0.0,93,0.00,,,0.00,WeatherTracker,2013-06-06 10:35:00,
2013-06-06 03:40:00,51.8,50.0,29.94,East,90,0.0,0.0,92,0.00,,,0.00,WeatherTracker,2013-06-06 10:40:00,
2013-06-06 03:45:00,52.0,50.0,29.94,SE,135,0.0,0.0,93,0.00,,,0.00,WeatherTracker,2013-06-06 10:45:00,
2013-06-06 03:50:00,51.6,50.0,29.94,SE,135,1.0,0.0,93,0.00,,,0.00,WeatherTracker,2013-06-06 10:50:00,
2013-06-06 03:55:00,51.4,50.0,29.94,East,90,0.0,0.0,93,0.00,,,0.00,WeatherTracker,2013-06-06 10:55:00,
2013-06-06 04:00:00,51.6,50.0,29.94,SE,135,0.0,1.0,93,0.00,,,0.00,WeatherTracker,2013-06-06 11:00:00,
2013-06-06 04:10:00,51.4,50.0,29.94,SE,135,1.0,1.0,93,0.00,,,0.00,WeatherTracker,2013-06-06 11:10:00,
2013-06-06 04:15:00,51.4,50.0,29.94,ESE,112,0.0,0.0,93,0.00,,,0.00,WeatherTracker,2013-06-06 11:15:00,
2013-06-06 04:20:00,51.4,50.0,29.94,East,90,0.0,0.0,93,0.00,,,0.00,WeatherTracker,2013-06-06 11:20:00,
2013-06-06 04:25:00,51.4,50.0,29.94,SE,135,0.0,0.0,93,0.00,,,0.00,WeatherTracker,2013-06-06 11:25:00,
2013-06-06 04:30:00,51.4,50.0,29.94,SE,135,2.0,2.0,93,0.00,,,0.00,WeatherTracker,2013-06-06 11:30:00,
2013-06-06 04:35:00,51.3,50.0,29.94,East,90,0.0,0.0,94,0.00,,,0.00,WeatherTracker,2013-06-06 11:35:00,
2013-06-06 04:40:00,51.3,50.0,29.94,ESE,112,0.0,0.0,94,0.00,,,0.00,WeatherTracker,2013-06-06 11:40:00,
2013-06-06 04:50:00,51.4,50.0,29.94,SE,135,2.0,2.0,94,0.00,,,0.00,WeatherTracker,2013-06-06 11:50:00,
2013-06-06 04:55:00,51.6,50.0,29.94,SE,135,0.0,0.0,94,0.00,,,0.00,WeatherTracker,2013-06-06 11:55:00,
2013-06-06 05:00:00,51.4,50.0,29.94,SE,135,1.0,1.0,94,0.00,,,0.00,WeatherTracker,2013-06-06 12:00:00,
2013-06-06 05:05:00,51.6,50.0,29.94,SE,135,0.0,0.0,94,0.00,,,0.00,WeatherTracker,2013-06-06 12:05:00,
2013-06-06 05:10:00,51.4,50.0,29.94,ESE,112,0.0,0.0,93,0.00,,,0.00,WeatherTracker,2013-06-06 12:10:00,
2013-06-06 05:20:00,51.6,50.0,29.94,SE,135,1.0,0.0,93,0.00,,,0.00,WeatherTracker,2013-06-06 12:20:00,
2013-06-06 05:25:00,51.8,50.0,29.94,SE,135,1.0,1.0,93,0.00,,,0.00,WeatherTracker,2013-06-06 12:25:00,
2013-06-06 05:30:00,51.8,50.0,29.94,East,90,0.0,0.0,93,0.00,,,0.00,WeatherTracker,2013-06-06 12:30:00,
2013-06-06 05:35:00,51.6,50.0,29.94,SE,135,0.0,0.0,93,0.00,,,0.00,WeatherTracker,2013-06-06 12:35:00,
2013-06-06 05:45:00,51.6,50.0,29.94,SE,135,0.0,0.0,93,0.00,,,0.00,WeatherTracker,2013-06-06 12:45:00,
2013-06-06 05:55:00,51.6,50.0,29.94,SE,135,0.0,0.0,93,0.00,,,0.00,WeatherTracker,2013-06-06 12:55:00,
2013-06-06 06:00:00,51.8,50.0,29.94,SE,135,0.0,0.0,93,0.00,,,0.00,WeatherTracker,2013-06-06 13:00:00,
2013-06-06 06:05:00,52.0,50.0,29.94,SSE,157,0.0,0.0,93,0.00,,,0.00,WeatherTracker,2013-06-06 13:05:00,
2013-06-06 06:10:00,52.0,50.0,29.94,SE,135,0.0,0.0,93,0.00,,,0.00,WeatherTracker,2013-06-06 13:10:00,
2013-06-06 06:15:00,52.2,50.0,29.94,SE,135,0.0,0.0,93,0.00,,,0.00,WeatherTracker,2013-06-06 13:15:00,
2013-06-06 06:20:00,52.7,51.8,29.94,SE,135,0.0,0.0,93,0.00,,,0.00,WeatherTracker,2013-06-06 13:20:00,
2013-06-06 06:30:00,53.1,51.8,29.94,ESE,112,0.0,0.0,93,0.00,,,0.00,WeatherTracker,2013-06-06 13:30:00,
2013-06-06 06:35:00,54.0,51.8,29.94,East,90,0.0,0.0,93,0.00,,,0.00,WeatherTracker,2013-06-06 13:35:00,
2013-06-06 06:40:00,55.0,53.6,29.94,East,90,0.0,0.0,93,0.00,,,0.00,WeatherTracker,2013-06-06 13:40:00,
2013-06-06 06:45:00,56.1,55.4,29.94,East,90,0.0,0.0,93,0.00,,,0.00,WeatherTracker,2013-06-06 13:45:00,
2013-06-06 06:50:00,57.2,55.4,29.94,East,90,0.0,0.0,92,0.00,,,0.00,WeatherTracker,2013-06-06 13:50:00,
2013-06-06 06:55:00,58.3,55.4,29.94,East,90,0.0,0.0,92,0.00,,,0.00,WeatherTracker,2013-06-06 13:55:00,
2013-06-06 07:05:00,60.4,57.2,29.94,SE,135,0.0,0.0,88,0.00,,,0.00,WeatherTracker,2013-06-06 14:05:00,
2013-06-06 07:10:00,61.3,57.2,29.94,SE,135,0.0,0.0,84,0.00,,,0.00,WeatherTracker,2013-06-06 14:10:00,
2013-06-06 07:15:00,62.1,57.2,29.94,SE,135,0.0,0.0,82,0.00,,,0.00,WeatherTracker,2013-06-06 14:15:00,
2013-06-06 07:20:00,63.0,55.4,29.94,SE,135,0.0,0.0,78,0.00,,,0.00,WeatherTracker,2013-06-06 14:20:00,
2013-06-06 07:25:00,63.3,55.4,29.94,SE,135,0.0,0.0,75,0.00,,,0.00,WeatherTracker,2013-06-06 14:25:00,
2013-06-06 07:30:00,64.4,55.4,29.94,SE,135,0.0,0.0,74,0.00,,,0.00,WeatherTracker,2013-06-06 14:30:00,
2013-06-06 07:40:00,65.7,55.4,29.97,SE,135,0.0,0.0,69,0.00,,,0.00,WeatherTracker,2013-06-06 14:40:00,
2013-06-06 07:45:00,66.6,57.2,29.97,SE,135,0.0,0.0,70,0.00,,,0.00,WeatherTracker,2013-06-06 14:45:00,
2013-06-06 07:50:00,66.9,55.4,29.94,SE,135,0.0,1.0,67,0.00,,,0.00,WeatherTracker,2013-06-06 14:50:00,
2013-06-06 07:55:00,67.1,55.4,29.94,SSW,202,0.0,0.0,65,0.00,,,0.00,WeatherTracker,2013-06-06 14:55:00,
2013-06-06 08:00:00,67.6,55.4,29.94,SSW,202,0.0,0.0,63,0.00,,,0.00,WeatherTracker,2013-06-06 15:00:00,
2013-06-06 08:05:00,67.5,51.8,29.94,SE,135,1.0,0.0,58,0.00,,,0.00,WeatherTracker,2013-06-06 15:05:00,
2013-06-06 08:15:00,68.7,53.6,29.94,South,180,1.0,1.0,58,0.00,,,0.00,WeatherTracker,2013-06-06 15:15:00,
2013-06-06 08:20:00,69.1,53.6,29.94,WNW,292,2.0,3.0,57,0.00,,,0.00,WeatherTracker,2013-06-06 15:20:00,
2013-06-06 08:25:00,69.3,53.6,29.94,North,0,1.0,0.0,57,0.00,,,0.00,WeatherTracker,2013-06-06 15:25:00,
2013-06-06 08:30:00,69.1,51.8,29.94,WNW,292,2.0,2.0,55,0.00,,,0.00,WeatherTracker,2013-06-06 15:30:00,
2013-06-06 08:35:00,68.4,51.8,29.94,WNW,292,2.0,3.0,53,0.00,,,0.00,WeatherTracker,2013-06-06 15:35:00,
2013-06-06 08:40:00,68.2,51.8,29.94,WNW,292,1.0,1.0,55,0.00,,,0.00,WeatherTracker,2013-06-06 15:40:00,
2013-06-06 08:50:00,68.0,51.8,29.97,NW,315,3.0,3.0,54,0.00,,,0.00,WeatherTracker,2013-06-06 15:50:00,
2013-06-06 08:55:00,68.5,51.8,29.97,NW,315,1.0,1.0,56,0.00,,,0.00,WeatherTracker,2013-06-06 15:55:00,
2013-06-06 09:00:00,69.6,53.6,29.97,NNE,22,1.0,1.0,56,0.00,,,0.00,WeatherTracker,2013-06-06 16:00:00,
2013-06-06 09:05:00,69.3,51.8,29.97,NNW,337,2.0,2.0,53,0.00,,,0.00,WeatherTracker,2013-06-06 16:05:00,
2013-06-06 09:15:00,68.4,51.8,29.97,NW,315,3.0,3.0,54,0.00,,,0.00,WeatherTracker,2013-06-06 16:15:00,
2013-06-06 09:25:00,67.3,50.0,29.97,WNW,292,2.0,2.0,54,0.00,,,0.00,WeatherTracker,2013-06-06 16:25:00,
2013-06-06 09:30:00,68.0,51.8,29.97,NW,315,2.0,2.0,56,0.00,,,0.00,WeatherTracker,2013-06-06 16:30:00,
2013-06-06 09:35:00,69.1,51.8,29.97,WNW,292,3.0,3.0,54,0.00,,,0.00,WeatherTracker,2013-06-06 16:35:00,
2013-06-06 09:40:00,70.7,53.6,29.97,NW,315,3.0,3.0,53,0.00,,,0.00,WeatherTracker,2013-06-06 16:40:00,
2013-06-06 09:45:00,71.4,53.6,29.97,WNW,292,2.0,3.0,51,0.00,,,0.00,WeatherTracker,2013-06-06 16:45:00,
2013-06-06 09:50:00,72.0,53.6,29.97,NNW,337,3.0,3.0,50,0.00,,,0.00,WeatherTracker,2013-06-06 16:50:00,
2013-06-06 09:55:00,72.5,53.6,29.97,NW,315,2.0,0.0,50,0.00,,,0.00,WeatherTracker,2013-06-06 16:55:00,
2013-06-06 10:00:00,73.2,53.6,29.97,NNW,337,1.0,2.0,49,0.00,,,0.00,WeatherTracker,2013-06-06 17:00:00,
2013-06-06 10:05:00,73.2,53.6,29.97,North,0,1.0,2.0,49,0.00,,,0.00,WeatherTracker,2013-06-06 17:05:00,
2013-06-06 10:10:00,73.4,51.8,29.97,NW,315,2.0,3.0,47,0.00,,,0.00,WeatherTracker,2013-06-06 17:10:00,
2013-06-06 10:15:00,74.3,53.6,29.97,NW,315,1.0,2.0,48,0.00,,,0.00,WeatherTracker,2013-06-06 17:15:00,
2013-06-06 10:25:00,73.6,51.8,29.97,WNW,292,3.0,3.0,45,0.00,,,0.00,WeatherTracker,2013-06-06 17:25:00,
2013-06-06 10:30:00,72.1,50.0,29.97,NNE,22,2.0,4.0,46,0.00,,,0.00,WeatherTracker,2013-06-06 17:30:00,
2013-06-06 10:40:00,69.8,50.0,29.97,North,0,2.0,2.0,50,0.00,,,0.00,WeatherTracker,2013-06-06 17:40:00,
2013-06-06 10:50:00,72.9,53.6,29.97,WNW,292,2.0,2.0,51,0.00,,,0.00,WeatherTracker,2013-06-06 17:50:00,
2013-06-06 10:55:00,73.0,53.6,29.97,WNW,292,3.0,4.0,49,0.00,,,0.00,WeatherTracker,2013-06-06 17:55:00,
2013-06-06 11:05:00,74.5,53.6,29.97,NW,315,3.0,3.0,46,0.00,,,0.00,WeatherTracker,2013-06-06 18:05:00,
2013-06-06 11:15:00,76.1,53.6,29.97,NW,315,2.0,4.0,45,0.00,,,0.00,WeatherTracker,2013-06-06 18:15:00,
2013-06-06 11:25:00,76.8,53.6,29.97,WNW,292,3.0,3.0,43,0.00,,,0.00,WeatherTracker,2013-06-06 18:25:00,
2013-06-06 11:35:00,77.4,53.6,29.97,NNW,337,3.0,3.0,42,0.00,,,0.00,WeatherTracker,2013-06-06 18:35:00,
2013-06-06 11:40:00,77.0,51.8,29.97,NW,315,4.0,4.0,41,0.00,,,0.00,WeatherTracker,2013-06-06 18:40:00,
2013-06-06 11:45:00,76.6,51.8,29.97,WNW,292,2.0,3.0,42,0.00,,,0.00,WeatherTracker,2013-06-06 18:45:00,
2013-06-06 11:50:00,76.5,51.8,29.94,NNW,337,2.0,2.0,43,0.00,,,0.00,WeatherTracker,2013-06-06 18:50:00,
2013-06-06 12:00:00,79.9,55.4,29.94,NNW,337,2.0,2.0,41,0.00,,,0.00,WeatherTracker,2013-06-06 19:00:00,
2013-06-06 12:10:00,80.2,53.6,29.97,North,0,2.0,3.0,39,0.00,,,0.00,WeatherTracker,2013-06-06 19:10:00,
2013-06-06 12:15:00,80.2,53.6,29.97,WNW,292,3.0,3.0,39,0.00,,,0.00,WeatherTracker,2013-06-06 19:15:00,
2013-06-06 12:25:00,80.1,51.8,29.97,NW,315,2.0,4.0,38,0.00,,,0.00,WeatherTracker,2013-06-06 19:25:00,
2013-06-06 12:35:00,79.7,51.8,29.97,NNW,337,3.0,3.0,38,0.00,,,0.00,WeatherTracker,2013-06-06 19:35:00,
2013-06-06 12:45:00,80.2,51.8,29.97,North,0,2.0,3.0,37,0.00,,,0.00,WeatherTracker,2013-06-06 19:45:00,
2013-06-06 12:50:00,79.7,51.8,29.97,NNW,337,2.0,2.0,37,0.00,,,0.00,WeatherTracker,2013-06-06 19:50:00,
2013-06-06 13:00:00,76.6,48.2,29.97,NNW,337,3.0,4.0,38,0.00,,,0.00,WeatherTracker,2013-06-06 20:00:00,
2013-06-06 13:10:00,77.7,50.0,29.97,ENE,67,4.0,4.0,37,0.00,,,0.00,WeatherTracker,2013-06-06 20:10:00,
2013-06-06 13:20:00,80.4,51.8,29.97,NNW,337,2.0,2.0,36,0.00,,,0.00,WeatherTracker,2013-06-06 20:20:00,
2013-06-06 13:25:00,80.6,51.8,29.97,NNE,22,3.0,3.0,36,0.00,,,0.00,WeatherTracker,2013-06-06 20:25:00,
2013-06-06 13:35:00,80.4,51.8,29.94,WNW,292,2.0,2.0,36,0.00,,,0.00,WeatherTracker,2013-06-06 20:35:00,
2013-06-06 13:45:00,81.9,53.6,29.94,North,0,2.0,2.0,36,0.00,,,0.00,WeatherTracker,2013-06-06 20:45:00,
2013-06-06 13:50:00,81.3,51.8,29.94,NW,315,3.0,3.0,36,0.00,,,0.00,WeatherTracker,2013-06-06 20:50:00,
2013-06-06 13:55:00,81.3,51.8,29.94,NW,315,2.0,4.0,36,0.00,,,0.00,WeatherTracker,2013-06-06 20:55:00,
2013-06-06 14:00:00,81.1,51.8,29.94,NW,315,3.0,3.0,35,0.00,,,0.00,WeatherTracker,2013-06-06 21:00:00,
2013-06-06 14:05:00,81.0,51.8,29.94,NNW,337,4.0,4.0,35,0.00,,,0.00,WeatherTracker,2013-06-06 21:05:00,
2013-06-06 14:10:00,81.7,51.8,29.94,WNW,292,2.0,4.0,35,0.00,,,0.00,WeatherTracker,2013-06-06 21:10:00,
2013-06-06 14:20:00,80.8,50.0,29.94,NNW,337,4.0,4.0,34,0.00,,,0.00,WeatherTracker,2013-06-06 21:20:00,
2013-06-06 14:30:00,79.0,48.2,29.94,NNW,337,4.0,4.0,35,0.00,,,0.00,WeatherTracker,2013-06-06 21:30:00,
2013-06-06 14:35:00,77.9,50.0,29.94,NW,315,2.0,2.0,37,0.00,,,0.00,WeatherTracker,2013-06-06 21:35:00,
2013-06-06 14:45:00,78.4,50.0,29.94,NW,315,4.0,5.0,38,0.00,,,0.00,WeatherTracker,2013-06-06 21:45:00,
2013-06-06 14:50:00,78.1,50.0,29.94,NW,315,4.0,4.0,38,0.00,,,0.00,WeatherTracker,2013-06-06 21:50:00,
2013-06-06 15:00:00,77.4,50.0,29.94,NW,315,4.0,7.0,38,0.00,,,0.00,WeatherTracker,2013-06-06 22:00:00,
2013-06-06 15:10:00,77.9,50.0,29.94,NNW,337,4.0,4.0,38,0.00,,,0.00,WeatherTracker,2013-06-06 22:10:00,
2013-06-06 15:20:00,79.0,51.8,29.94,WNW,292,2.0,2.0,38,0.00,,,0.00,WeatherTracker,2013-06-06 22:20:00,
2013-06-06 15:30:00,79.5,51.8,29.94,NW,315,3.0,3.0,37,0.00,,,0.00,WeatherTracker,2013-06-06 22:30:00,
2013-06-06 15:35:00,79.3,51.8,29.94,NNE,22,4.0,4.0,37,0.00,,,0.00,WeatherTracker,2013-06-06 22:35:00,
2013-06-06 15:40:00,78.4,50.0,29.94,WNW,292,4.0,4.0,38,0.00,,,0.00,WeatherTracker,2013-06-06 22:40:00,
2013-06-06 15:45:00,78.1,50.0,29.94,North,0,4.0,4.0,38,0.00,,,0.00,WeatherTracker,2013-06-06 22:45:00,
2013-06-06 15:50:00,77.2,51.8,29.94,NNE,22,4.0,4.0,40,0.00,,,0.00,WeatherTracker,2013-06-06 22:50:00,
2013-06-06 15:55:00,76.3,51.8,29.94,NNW,337,4.0,6.0,41,0.00,,,0.00,WeatherTracker,2013-06-06 22:55:00,
2013-06-06 16:00:00,76.8,51.8,29.94,NNW,337,3.0,4.0,41,0.00,,,0.00,WeatherTracker,2013-06-06 23:00:00,
2013-06-06 16:05:00,78.1,51.8,29.94,NW,315,3.0,3.0,40,0.00,,,0.00,WeatherTracker,2013-06-06 23:05:00,
2013-06-06 16:10:00,78.1,51.8,29.94,WNW,292,4.0,4.0,40,0.00,,,0.00,WeatherTracker,2013-06-06 23:10:00,
2013-06-06 16:15:00,77.4,51.8,29.94,NNE,22,2.0,2.0,40,0.00,,,0.00,WeatherTracker,2013-06-06 23:15:00,
2013-06-06 16:25:00,77.0,48.2,29.94,NNW,337,3.0,6.0,36,0.00,,,0.00,WeatherTracker,2013-06-06 23:25:00,
2013-06-06 16:30:00,76.3,50.0,29.94,WNW,292,3.0,3.0,39,0.00,,,0.00,WeatherTracker,2013-06-06 23:30:00,
2013-06-06 16:35:00,75.6,51.8,29.97,NW,315,3.0,3.0,42,0.00,,,0.00,WeatherTracker,2013-06-06 23:35:00,
2013-06-06 16:40:00,74.8,50.0,29.97,WNW,292,4.0,5.0,43,0.00,,,0.00,WeatherTracker,2013-06-06 23:40:00,
2013-06-06 16:45:00,74.5,51.8,29.97,WNW,292,4.0,4.0,45,0.00,,,0.00,WeatherTracker,2013-06-06 23:45:00,
2013-06-06 16:50:00,73.6,51.8,29.94,WNW,292,4.0,4.0,47,0.00,,,0.00,WeatherTracker,2013-06-06 23:50:00,
2013-06-06 17:00:00,73.9,53.6,29.94,North,0,3.0,4.0,47,0.00,,,0.00,WeatherTracker,2013-06-07 00:00:00,
2013-06-06 17:05:00,73.6,51.8,29.94,NW,315,3.0,4.0,47,0.00,,,0.00,WeatherTracker,2013-06-07 00:05:00,
2013-06-06 17:10:00,73.9,53.6,29.94,NNW,337,3.0,3.0,47,0.00,,,0.00,WeatherTracker,2013-06-07 00:10:00,
2013-06-06 17:15:00,74.7,53.6,29.94,NNW,337,3.0,3.0,47,0.00,,,0.00,WeatherTracker,2013-06-07 00:15:00,
2013-06-06 17:20:00,75.2,53.6,29.94,NW,315,4.0,4.0,45,0.00,,,0.00,WeatherTracker,2013-06-07 00:20:00,
2013-06-06 17:25:00,74.7,51.8,29.94,NNW,337,3.0,3.0,45,0.00,,,0.00,WeatherTracker,2013-06-07 00:25:00,
2013-06-06 17:35:00,73.9,53.6,29.94,NNW,337,3.0,3.0,47,0.00,,,0.00,WeatherTracker,2013-06-07 00:35:00,
2013-06-06 17:40:00,73.2,53.6,29.94,WNW,292,4.0,4.0,49,0.00,,,0.00,WeatherTracker,2013-06-07 00:40:00,
2013-06-06 17:45:00,73.8,53.6,29.94,North,0,2.0,2.0,49,0.00,,,0.00,WeatherTracker,2013-06-07 00:45:00,
2013-06-06 17:50:00,73.8,53.6,29.94,NW,315,3.0,4.0,49,0.00,,,0.00,WeatherTracker,2013-06-07 00:50:00,
2013-06-06 17:55:00,72.5,51.8,29.94,NNW,337,3.0,3.0,48,0.00,,,0.00,WeatherTracker,2013-06-07 00:55:00,
2013-06-06 18:00:00,71.6,51.8,29.94,NW,315,2.0,4.0,49,0.00,,,0.00,WeatherTracker,2013-06-07 01:00:00,
2013-06-06 18:10:00,70.5,51.8,29.94,WNW,292,1.0,2.0,50,0.00,,,0.00,WeatherTracker,2013-06-07 01:10:00,
2013-06-06 18:20:00,70.2,51.8,29.94,NW,315,2.0,2.0,51,0.00,,,0.00,WeatherTracker,2013-06-07 01:20:00,
2013-06-06 18:25:00,70.0,51.8,29.94,WNW,292,2.0,2.0,52,0.00,,,0.00,WeatherTracker,2013-06-07 01:25:00,
2013-06-06 18:30:00,69.8,51.8,29.94,NW,315,1.0,0.0,53,0.00,,,0.00,WeatherTracker,2013-06-07 01:30:00,
2013-06-06 18:35:00,70.0,53.6,29.94,NW,315,0.0,0.0,54,0.00,,,0.00,WeatherTracker,2013-06-07 01:35:00,
2013-06-06 18:40:00,70.0,53.6,29.94,WNW,292,0.0,1.0,55,0.00,,,0.00,WeatherTracker,2013-06-07 01:40:00,
2013-06-06 18:45:00,69.4,51.8,29.94,NW,315,1.0,0.0,55,0.00,,,0.00,WeatherTracker,2013-06-07 01:45:00,
2013-06-06 18:50:00,69.4,51.8,29.94,NW,315,0.0,0.0,55,0.00,,,0.00,WeatherTracker,2013-06-07 01:50:00,
2013-06-06 18:55:00,69.4,51.8,29.94,NW,315,0.0,0.0,55,0.00,,,0.00,WeatherTracker,2013-06-07 01:55:00,
2013-06-06 19:00:00,69.6,53.6,29.94,NW,315,0.0,0.0,56,0.00,,,0.00,WeatherTracker,2013-06-07 02:00:00,
2013-06-06 19:05:00,69.4,53.6,29.91,NW,315,0.0,0.0,57,0.00,,,0.00,WeatherTracker,2013-06-07 02:05:00,
2013-06-06 19:10:00,69.3,53.6,29.91,NW,315,0.0,0.0,56,0.00,,,0.00,WeatherTracker,2013-06-07 02:10:00,
2013-06-06 19:20:00,68.9,53.6,29.91,NW,315,0.0,0.0,58,0.00,,,0.00,WeatherTracker,2013-06-07 02:20:00,
2013-06-06 19:25:00,68.7,50.0,29.91,NW,315,0.0,0.0,52,0.00,,,0.00,WeatherTracker,2013-06-07 02:25:00,
2013-06-06 19:30:00,68.5,50.0,29.91,NW,315,0.0,0.0,50,0.00,,,0.00,WeatherTracker,2013-06-07 02:30:00,
2013-06-06 19:35:00,68.4,48.2,29.91,NW,315,0.0,0.0,46,0.00,,,0.00,WeatherTracker,2013-06-07 02:35:00,
2013-06-06 19:40:00,68.4,46.4,29.91,NW,315,0.0,0.0,45,0.00,,,0.00,WeatherTracker,2013-06-07 02:40:00,
2013-06-06 19:45:00,68.4,48.2,29.91,NW,315,0.0,0.0,46,0.00,,,0.00,WeatherTracker,2013-06-07 02:45:00,
2013-06-06 19:55:00,68.0,46.4,29.94,NW,315,0.0,0.0,46,0.00,,,0.00,WeatherTracker,2013-06-07 02:55:00,
2013-06-06 20:00:00,67.6,46.4,29.94,NW,315,0.0,0.0,47,0.00,,,0.00,WeatherTracker,2013-06-07 03:00:00,
2013-06-06 20:05:00,67.6,48.2,29.91,NW,315,0.0,0.0,48,0.00,,,0.00,WeatherTracker,2013-06-07 03:05:00,
2013-06-06 20:10:00,67.5,46.4,29.91,NW,315,0.0,0.0,47,0.00,,,0.00,WeatherTracker,2013-06-07 03:10:00,
2013-06-06 20:15:00,67.3,46.4,29.91,NW,315,0.0,0.0,47,0.00,,,0.00,WeatherTracker,2013-06-07 03:15:00,
2013-06-06 20:20:00,67.3,48.2,29.91,NW,315,0.0,0.0,48,0.00,,,0.00,WeatherTracker,2013-06-07 03:20:00,
2013-06-06 20:30:00,66.9,48.2,29.91,ESE,112,0.0,0.0,49,0.00,,,0.00,WeatherTracker,2013-06-07 03:30:00,
2013-06-06 20:35:00,66.7,48.2,29.91,ESE,112,0.0,0.0,50,0.00,,,0.00,WeatherTracker,2013-06-07 03:35:00,
2013-06-06 20:45:00,66.4,48.2,29.91,ESE,112,0.0,0.0,52,0.00,,,0.00,WeatherTracker,2013-06-07 03:45:00,
2013-06-06 20:50:00,66.2,50.0,29.91,ESE,112,0.0,0.0,54,0.00,,,0.00,WeatherTracker,2013-06-07 03:50:00,
2013-06-06 20:55:00,65.8,48.2,29.91,ESE,112,0.0,0.0,55,0.00,,,0.00,WeatherTracker,2013-06-07 03:55:00,
2013-06-06 21:00:00,65.7,48.2,29.91,ESE,112,0.0,0.0,55,0.00,,,0.00,WeatherTracker,2013-06-07 04:00:00,
2013-06-06 21:05:00,65.3,48.2,29.91,ESE,112,0.0,0.0,55,0.00,,,0.00,WeatherTracker,2013-06-07 04:05:00,
2013-06-06 21:10:00,65.1,48.2,29.91,ESE,112,0.0,0.0,55,0.00,,,0.00,WeatherTracker,2013-06-07 04:10:00,
2013-06-06 21:15:00,64.8,48.2,29.91,ESE,112,0.0,0.0,56,0.00,,,0.00,WeatherTracker,2013-06-07 04:15:00,
2013-06-06 21:20:00,64.4,48.2,29.91,ESE,112,0.0,0.0,56,0.00,,,0.00,WeatherTracker,2013-06-07 04:20:00,
2013-06-06 21:25:00,64.0,48.2,29.91,ESE,112,0.0,0.0,57,0.00,,,0.00,WeatherTracker,2013-06-07 04:25:00,
2013-06-06 21:30:00,63.9,48.2,29.91,SSE,157,0.0,0.0,58,0.00,,,0.00,WeatherTracker,2013-06-07 04:30:00,
2013-06-06 21:40:00,63.7,50.0,29.91,SE,135,0.0,0.0,60,0.00,,,0.00,WeatherTracker,2013-06-07 04:40:00,
2013-06-06 21:45:00,63.5,50.0,29.91,SE,135,0.0,0.0,61,0.00,,,0.00,WeatherTracker,2013-06-07 04:45:00,
2013-06-06 21:50:00,63.3,50.0,29.91,ESE,112,0.0,0.0,63,0.00,,,0.00,WeatherTracker,2013-06-07 04:50:00,
2013-06-06 21:55:00,63.3,50.0,29.91,ESE,112,0.0,0.0,63,0.00,,,0.00,WeatherTracker,2013-06-07 04:55:00,
2013-06-06 22:00:00,63.1,51.8,29.91,ESE,112,0.0,0.0,65,0.00,,,0.00,WeatherTracker,2013-06-07 05:00:00,
2013-06-06 22:05:00,63.1,51.8,29.91,ESE,112,0.0,0.0,66,0.00,,,0.00,WeatherTracker,2013-06-07 05:05:00,
2013-06-06 22:10:00,63.1,51.8,29.91,ESE,112,0.0,0.0,66,0.00,,,0.00,WeatherTracker,2013-06-07 05:10:00,
2013-06-06 22:15:00,63.1,51.8,29.91,ESE,112,0.0,0.0,66,0.00,,,0.00,WeatherTracker,2013-06-07 05:15:00,
2013-06-06 22:20:00,63.1,51.8,29.91,SE,135,0.0,0.0,67,0.00,,,0.00,WeatherTracker,2013-06-07 05:20:00,
2013-06-06 22:25:00,63.1,51.8,29.91,SE,135,0.0,0.0,67,0.00,,,0.00,WeatherTracker,2013-06-07 05:25:00,
2013-06-06 22:30:00,63.1,51.8,29.91,SE,135,0.0,0.0,67,0.00,,,0.00,WeatherTracker,2013-06-07 05:30:00,
2013-06-06 22:35:00,63.1,51.8,29.91,SE,135,0.0,0.0,67,0.00,,,0.00,WeatherTracker,2013-06-07 05:35:00,
2013-06-06 22:40:00,63.1,51.8,29.91,SE,135,0.0,0.0,67,0.00,,,0.00,WeatherTracker,2013-06-07 05:40:00,
2013-06-06 22:50:00,63.1,51.8,29.91,SE,135,0.0,0.0,67,0.00,,,0.00,WeatherTracker,2013-06-07 05:50:00,
2013-06-06 22:55:00,63.0,51.8,29.91,East,90,0.0,0.0,67,0.00,,,0.00,WeatherTracker,2013-06-07 05:55:00,
2013-06-06 23:00:00,63.0,51.8,29.91,East,90,0.0,0.0,67,0.00,,,0.00,WeatherTracker,2013-06-07 06:00:00,
2013-06-06 23:10:00,62.6,51.8,29.91,SE,135,0.0,0.0,68,0.00,,,0.00,WeatherTracker,2013-06-07 06:10:00,
2013-06-06 23:15:00,62.6,51.8,29.91,SE,135,0.0,0.0,68,0.00,,,0.00,WeatherTracker,2013-06-07 06:15:00,
2013-06-06 23:25:00,62.2,51.8,29.91,SE,135,0.0,0.0,69,0.00,,,0.00,WeatherTracker,2013-06-07 06:25:00,
2013-06-06 23:30:00,62.2,51.8,29.91,SE,135,0.0,0.0,69,0.00,,,0.00,WeatherTracker,2013-06-07 06:30:00,
2013-06-06 23:35:00,62.2,51.8,29.91,SE,135,0.0,0.0,70,0.00,,,0.00,WeatherTracker,2013-06-07 06:35:00,
2013-06-06 23:40:00,62.1,51.8,29.91,SE,135,0.0,0.0,70,0.00,,,0.00,WeatherTracker,2013-06-07 06:40:00,
2013-06-06 23:45:00,62.1,51.8,29.91,SE,135,0.0,0.0,70,0.00,,,0.00,WeatherTracker,2013-06-07 06:45:00,
2013-06-06 23:50:00,62.1,51.8,29.91,SE,135,0.0,0.0,70,0.00,,,0.00,WeatherTracker,2013-06-07 06:50:00,